sensor_id;sensor_type;location;lat;lon;timestamp;temperature;humidity
9723;DHT22;4900;49.306;8.500;2022-09-01T00:01:39;18.39;71.47
9723;DHT22;4900;49.306;8.500;2022-09-01T00:04:44;18.33;71.73
9723;DHT22;4900;49.306;8.500;2022-09-01T00:07:48;18.34;71.88
9723;DHT22;4900;49.306;8.500;2022-09-01T00:10:51;18.31;71.91
9723;DHT22;4900;49.306;8.500;2022-09-01T00:13:56;18.27;71.98
9723;DHT22;4900;49.306;8.500;2022-09-01T00:17:04;18.24;71.92
9723;DHT22;4900;49.306;8.500;2022-09-01T00:20:08;18.20;71.94
9723;DHT22;4900;49.306;8.500;2022-09-01T00:23:11;18.19;71.96
9723;DHT22;4900;49.306;8.500;2022-09-01T00:26:14;18.22;71.95
9723;DHT22;4900;49.306;8.500;2022-09-01T00:29:18;18.17;72.08
9723;DHT22;4900;49.306;8.500;2022-09-01T00:32:21;18.14;72.06
9723;DHT22;4900;49.306;8.500;2022-09-01T00:35:24;18.10;72.03
9723;DHT22;4900;49.306;8.500;2022-09-01T00:38:28;18.09;72.18
9723;DHT22;4900;49.306;8.500;2022-09-01T00:41:34;18.09;72.34
9723;DHT22;4900;49.306;8.500;2022-09-01T00:44:40;18.06;72.38
9723;DHT22;4900;49.306;8.500;2022-09-01T00:47:43;18.08;72.28
9723;DHT22;4900;49.306;8.500;2022-09-01T00:50:46;18.08;72.16
9723;DHT22;4900;49.306;8.500;2022-09-01T00:53:50;18.03;72.12
9723;DHT22;4900;49.306;8.500;2022-09-01T00:56:54;17.98;72.31
9723;DHT22;4900;49.306;8.500;2022-09-01T01:00:04;18.03;72.28
9723;DHT22;4900;49.306;8.500;2022-09-01T01:03:12;18.02;72.27
9723;DHT22;4900;49.306;8.500;2022-09-01T01:06:15;18.02;72.29
9723;DHT22;4900;49.306;8.500;2022-09-01T01:09:21;17.99;72.43
9723;DHT22;4900;49.306;8.500;2022-09-01T01:12:24;17.98;72.53
9723;DHT22;4900;49.306;8.500;2022-09-01T01:15:30;17.98;72.58
9723;DHT22;4900;49.306;8.500;2022-09-01T01:18:33;17.98;72.51
9723;DHT22;4900;49.306;8.500;2022-09-01T01:21:39;17.94;72.53
9723;DHT22;4900;49.306;8.500;2022-09-01T01:25:03;17.95;72.59
9723;DHT22;4900;49.306;8.500;2022-09-01T01:31:16;17.89;72.77
9723;DHT22;4900;49.306;8.500;2022-09-01T01:34:20;17.85;72.85
9723;DHT22;4900;49.306;8.500;2022-09-01T01:37:24;17.85;73.17
9723;DHT22;4900;49.306;8.500;2022-09-01T01:40:29;17.82;73.40
9723;DHT22;4900;49.306;8.500;2022-09-01T01:43:33;17.82;73.20
9723;DHT22;4900;49.306;8.500;2022-09-01T01:46:41;17.84;73.14
9723;DHT22;4900;49.306;8.500;2022-09-01T01:49:44;17.82;73.02
9723;DHT22;4900;49.306;8.500;2022-09-01T01:52:48;17.82;73.04
9723;DHT22;4900;49.306;8.500;2022-09-01T01:55:51;17.79;73.05
9723;DHT22;4900;49.306;8.500;2022-09-01T01:58:55;17.74;73.00
9723;DHT22;4900;49.306;8.500;2022-09-01T02:01:59;17.75;72.82
9723;DHT22;4900;49.306;8.500;2022-09-01T02:05:05;17.71;72.80
9723;DHT22;4900;49.306;8.500;2022-09-01T02:08:10;17.64;73.02
9723;DHT22;4900;49.306;8.500;2022-09-01T02:11:13;17.67;72.92
9723;DHT22;4900;49.306;8.500;2022-09-01T02:14:18;17.61;73.07
9723;DHT22;4900;49.306;8.500;2022-09-01T02:17:23;17.57;73.15
9723;DHT22;4900;49.306;8.500;2022-09-01T02:20:28;17.58;73.10
9723;DHT22;4900;49.306;8.500;2022-09-01T02:23:32;17.58;72.99
9723;DHT22;4900;49.306;8.500;2022-09-01T02:26:41;17.55;72.81
9723;DHT22;4900;49.306;8.500;2022-09-01T02:29:47;17.57;72.73
9723;DHT22;4900;49.306;8.500;2022-09-01T02:32:53;17.51;72.67
9723;DHT22;4900;49.306;8.500;2022-09-01T02:36:03;17.50;72.73
9723;DHT22;4900;49.306;8.500;2022-09-01T02:39:07;17.44;72.84
9723;DHT22;4900;49.306;8.500;2022-09-01T02:42:10;17.47;72.77
9723;DHT22;4900;49.306;8.500;2022-09-01T02:45:14;17.46;72.65
9723;DHT22;4900;49.306;8.500;2022-09-01T02:48:18;17.41;72.74
9723;DHT22;4900;49.306;8.500;2022-09-01T02:51:24;17.43;72.72
9723;DHT22;4900;49.306;8.500;2022-09-01T02:54:29;17.39;72.68
9723;DHT22;4900;49.306;8.500;2022-09-01T02:57:33;17.34;72.68
9723;DHT22;4900;49.306;8.500;2022-09-01T03:00:36;17.32;72.87
9723;DHT22;4900;49.306;8.500;2022-09-01T03:03:41;17.29;73.05
9723;DHT22;4900;49.306;8.500;2022-09-01T03:06:46;17.27;73.09
9723;DHT22;4900;49.306;8.500;2022-09-01T03:09:49;17.23;73.20
9723;DHT22;4900;49.306;8.500;2022-09-01T03:12:54;17.22;73.09
9723;DHT22;4900;49.306;8.500;2022-09-01T03:15:57;17.18;73.21
9723;DHT22;4900;49.306;8.500;2022-09-01T03:19:01;17.15;73.56
9723;DHT22;4900;49.306;8.500;2022-09-01T03:22:09;17.18;73.76
9723;DHT22;4900;49.306;8.500;2022-09-01T03:25:12;17.22;74.10
9723;DHT22;4900;49.306;8.500;2022-09-01T03:28:16;17.26;74.18
9723;DHT22;4900;49.306;8.500;2022-09-01T03:31:19;17.30;74.38
9723;DHT22;4900;49.306;8.500;2022-09-01T03:34:22;17.37;74.38
9723;DHT22;4900;49.306;8.500;2022-09-01T03:37:26;17.39;74.16
9723;DHT22;4900;49.306;8.500;2022-09-01T03:40:34;17.36;74.22
9723;DHT22;4900;49.306;8.500;2022-09-01T03:43:38;17.36;74.09
9723;DHT22;4900;49.306;8.500;2022-09-01T03:46:42;17.34;74.04
9723;DHT22;4900;49.306;8.500;2022-09-01T03:49:46;17.30;74.15
9723;DHT22;4900;49.306;8.500;2022-09-01T03:52:54;17.29;74.16
9723;DHT22;4900;49.306;8.500;2022-09-01T03:55:58;17.22;74.24
9723;DHT22;4900;49.306;8.500;2022-09-01T03:59:02;17.20;74.46
9723;DHT22;4900;49.306;8.500;2022-09-01T04:02:05;17.18;74.39
9723;DHT22;4900;49.306;8.500;2022-09-01T04:05:09;17.18;74.08
9723;DHT22;4900;49.306;8.500;2022-09-01T04:08:12;17.15;74.10
9723;DHT22;4900;49.306;8.500;2022-09-01T04:11:17;17.06;74.23
9723;DHT22;4900;49.306;8.500;2022-09-01T04:14:21;17.11;74.10
9723;DHT22;4900;49.306;8.500;2022-09-01T04:17:24;17.06;74.06
9723;DHT22;4900;49.306;8.500;2022-09-01T04:20:52;17.02;74.05
9723;DHT22;4900;49.306;8.500;2022-09-01T04:23:55;16.99;73.93
9723;DHT22;4900;49.306;8.500;2022-09-01T04:27:07;16.95;73.99
9723;DHT22;4900;49.306;8.500;2022-09-01T04:30:12;16.94;74.01
9723;DHT22;4900;49.306;8.500;2022-09-01T04:33:15;16.94;73.94
9723;DHT22;4900;49.306;8.500;2022-09-01T04:36:25;16.91;73.91
9723;DHT22;4900;49.306;8.500;2022-09-01T04:39:29;16.89;73.99
9723;DHT22;4900;49.306;8.500;2022-09-01T04:42:32;16.87;74.14
9723;DHT22;4900;49.306;8.500;2022-09-01T04:45:35;16.83;74.06
9723;DHT22;4900;49.306;8.500;2022-09-01T04:48:40;16.81;74.20
9723;DHT22;4900;49.306;8.500;2022-09-01T04:51:49;16.77;74.30
9723;DHT22;4900;49.306;8.500;2022-09-01T04:54:53;16.79;74.37
9723;DHT22;4900;49.306;8.500;2022-09-01T04:57:58;16.78;74.40
9723;DHT22;4900;49.306;8.500;2022-09-01T05:01:18;16.77;74.45
9723;DHT22;4900;49.306;8.500;2022-09-01T05:04:24;16.78;74.34
9723;DHT22;4900;49.306;8.500;2022-09-01T05:07:28;16.84;74.30
9723;DHT22;4900;49.306;8.500;2022-09-01T05:10:32;16.87;74.17
9723;DHT22;4900;49.306;8.500;2022-09-01T05:13:37;16.94;74.00
9723;DHT22;4900;49.306;8.500;2022-09-01T05:16:47;16.95;73.96
9723;DHT22;4900;49.306;8.500;2022-09-01T05:19:51;17.01;73.95
9723;DHT22;4900;49.306;8.500;2022-09-01T05:22:56;17.02;73.94
9723;DHT22;4900;49.306;8.500;2022-09-01T05:26:00;17.04;74.00
9723;DHT22;4900;49.306;8.500;2022-09-01T05:29:06;17.09;74.04
9723;DHT22;4900;49.306;8.500;2022-09-01T05:32:14;17.12;74.09
9723;DHT22;4900;49.306;8.500;2022-09-01T05:35:18;17.15;74.16
9723;DHT22;4900;49.306;8.500;2022-09-01T05:38:23;17.20;74.17
9723;DHT22;4900;49.306;8.500;2022-09-01T05:41:27;17.26;74.19
9723;DHT22;4900;49.306;8.500;2022-09-01T05:44:31;17.30;74.11
9723;DHT22;4900;49.306;8.500;2022-09-01T05:47:34;17.39;74.10
9723;DHT22;4900;49.306;8.500;2022-09-01T05:50:39;17.44;74.27
9723;DHT22;4900;49.306;8.500;2022-09-01T05:53:55;17.46;74.21
9723;DHT22;4900;49.306;8.500;2022-09-01T05:57:00;17.57;74.39
9723;DHT22;4900;49.306;8.500;2022-09-01T06:00:07;17.64;74.35
9723;DHT22;4900;49.306;8.500;2022-09-01T06:03:15;17.71;74.11
9723;DHT22;4900;49.306;8.500;2022-09-01T06:06:25;17.79;74.01
9723;DHT22;4900;49.306;8.500;2022-09-01T06:09:28;17.88;73.91
9723;DHT22;4900;49.306;8.500;2022-09-01T06:12:32;17.98;73.67
9723;DHT22;4900;49.306;8.500;2022-09-01T06:15:37;18.05;73.50
9723;DHT22;4900;49.306;8.500;2022-09-01T06:18:43;18.13;73.16
9723;DHT22;4900;49.306;8.500;2022-09-01T06:21:46;18.22;72.90
9723;DHT22;4900;49.306;8.500;2022-09-01T06:24:51;18.29;72.70
9723;DHT22;4900;49.306;8.500;2022-09-01T06:27:56;18.40;72.57
9723;DHT22;4900;49.306;8.500;2022-09-01T06:31:05;18.51;72.26
9723;DHT22;4900;49.306;8.500;2022-09-01T06:34:11;18.65;72.35
9723;DHT22;4900;49.306;8.500;2022-09-01T06:37:20;18.81;72.30
9723;DHT22;4900;49.306;8.500;2022-09-01T06:40:24;19.03;72.22
9723;DHT22;4900;49.306;8.500;2022-09-01T06:43:27;19.30;71.87
9723;DHT22;4900;49.306;8.500;2022-09-01T06:46:32;19.75;70.88
9723;DHT22;4900;49.306;8.500;2022-09-01T06:49:36;20.29;69.69
9723;DHT22;4900;49.306;8.500;2022-09-01T06:52:41;20.64;68.32
9723;DHT22;4900;49.306;8.500;2022-09-01T06:55:47;21.06;67.04
9723;DHT22;4900;49.306;8.500;2022-09-01T06:58:52;21.38;66.33
9723;DHT22;4900;49.306;8.500;2022-09-01T07:01:55;21.66;65.55
9723;DHT22;4900;49.306;8.500;2022-09-01T07:05:02;21.76;65.03
9723;DHT22;4900;49.306;8.500;2022-09-01T07:08:06;21.76;65.11
9723;DHT22;4900;49.306;8.500;2022-09-01T07:11:17;21.81;64.61
9723;DHT22;4900;49.306;8.500;2022-09-01T07:14:26;22.14;64.49
9723;DHT22;4900;49.306;8.500;2022-09-01T07:17:29;22.53;63.96
9723;DHT22;4900;49.306;8.500;2022-09-01T07:20:32;22.51;63.66
9723;DHT22;4900;49.306;8.500;2022-09-01T07:23:40;22.67;63.83
9723;DHT22;4900;49.306;8.500;2022-09-01T07:26:46;23.00;63.12
9723;DHT22;4900;49.306;8.500;2022-09-01T07:29:53;23.41;62.65
9723;DHT22;4900;49.306;8.500;2022-09-01T07:32:58;24.10;61.15
9723;DHT22;4900;49.306;8.500;2022-09-01T07:36:01;24.72;59.44
9723;DHT22;4900;49.306;8.500;2022-09-01T07:39:07;25.27;57.82
9723;DHT22;4900;49.306;8.500;2022-09-01T07:42:10;25.54;56.45
9723;DHT22;4900;49.306;8.500;2022-09-01T07:45:15;26.12;54.96
9723;DHT22;4900;49.306;8.500;2022-09-01T07:48:19;26.44;53.72
9723;DHT22;4900;49.306;8.500;2022-09-01T07:51:25;26.89;52.57
9723;DHT22;4900;49.306;8.500;2022-09-01T07:54:28;27.21;51.80
9723;DHT22;4900;49.306;8.500;2022-09-01T07:57:32;27.34;51.12
9723;DHT22;4900;49.306;8.500;2022-09-01T08:00:35;27.58;50.44
9723;DHT22;4900;49.306;8.500;2022-09-01T08:03:40;27.38;50.48
9723;DHT22;4900;49.306;8.500;2022-09-01T08:06:43;27.79;49.66
9723;DHT22;4900;49.306;8.500;2022-09-01T08:09:47;28.21;48.90
9723;DHT22;4900;49.306;8.500;2022-09-01T08:12:50;28.81;47.95
9723;DHT22;4900;49.306;8.500;2022-09-01T08:15:53;29.31;47.23
9723;DHT22;4900;49.306;8.500;2022-09-01T08:18:57;29.11;46.25
9723;DHT22;4900;49.306;8.500;2022-09-01T08:22:01;29.78;45.06
9723;DHT22;4900;49.306;8.500;2022-09-01T08:25:06;30.06;44.72
9723;DHT22;4900;49.306;8.500;2022-09-01T08:28:11;29.90;44.63
9723;DHT22;4900;49.306;8.500;2022-09-01T08:31:16;30.41;43.74
9723;DHT22;4900;49.306;8.500;2022-09-01T08:34:20;30.62;43.34
9723;DHT22;4900;49.306;8.500;2022-09-01T08:37:23;31.07;42.26
9723;DHT22;4900;49.306;8.500;2022-09-01T08:40:27;31.19;41.99
9723;DHT22;4900;49.306;8.500;2022-09-01T08:46:57;31.51;40.85
9723;DHT22;4900;49.306;8.500;2022-09-01T08:50:02;31.61;40.55
9723;DHT22;4900;49.306;8.500;2022-09-01T08:53:17;31.37;41.04
9723;DHT22;4900;49.306;8.500;2022-09-01T08:56:24;31.22;41.79
9723;DHT22;4900;49.306;8.500;2022-09-01T08:59:28;31.09;41.57
9723;DHT22;4900;49.306;8.500;2022-09-01T09:03:10;31.12;41.37
9723;DHT22;4900;49.306;8.500;2022-09-01T09:06:25;30.71;41.51
9723;DHT22;4900;49.306;8.500;2022-09-01T09:09:47;30.43;41.96
9723;DHT22;4900;49.306;8.500;2022-09-01T09:13:11;30.72;41.74
9723;DHT22;4900;49.306;8.500;2022-09-01T09:16:26;31.45;40.89
9723;DHT22;4900;49.306;8.500;2022-09-01T09:19:42;31.92;40.01
9723;DHT22;4900;49.306;8.500;2022-09-01T09:22:47;32.51;39.26
9723;DHT22;4900;49.306;8.500;2022-09-01T09:25:50;32.79;38.60
9723;DHT22;4900;49.306;8.500;2022-09-01T09:28:54;32.74;38.02
9723;DHT22;4900;49.306;8.500;2022-09-01T09:32:06;33.40;36.59
9723;DHT22;4900;49.306;8.500;2022-09-01T09:35:22;33.29;36.60
9723;DHT22;4900;49.306;8.500;2022-09-01T09:38:25;33.56;36.51
9723;DHT22;4900;49.306;8.500;2022-09-01T09:41:33;33.95;35.90
9723;DHT22;4900;49.306;8.500;2022-09-01T09:44:46;34.42;35.15
9723;DHT22;4900;49.306;8.500;2022-09-01T09:47:52;34.32;34.53
9723;DHT22;4900;49.306;8.500;2022-09-01T09:51:23;34.08;34.99
9723;DHT22;4900;49.306;8.500;2022-09-01T09:54:30;34.56;35.29
9723;DHT22;4900;49.306;8.500;2022-09-01T09:57:38;35.29;33.94
9723;DHT22;4900;49.306;8.500;2022-09-01T10:00:57;35.36;34.17
9723;DHT22;4900;49.306;8.500;2022-09-01T10:04:04;35.01;34.07
9723;DHT22;4900;49.306;8.500;2022-09-01T10:10:30;35.11;34.57
9723;DHT22;4900;49.306;8.500;2022-09-01T10:13:34;34.80;34.11
9723;DHT22;4900;49.306;8.500;2022-09-01T10:16:39;35.02;34.04
9723;DHT22;4900;49.306;8.500;2022-09-01T10:19:55;35.14;33.63
9723;DHT22;4900;49.306;8.500;2022-09-01T10:23:00;35.50;32.87
9723;DHT22;4900;49.306;8.500;2022-09-01T10:29:21;36.63;31.99
9723;DHT22;4900;49.306;8.500;2022-09-01T10:32:32;36.69;32.05
9723;DHT22;4900;49.306;8.500;2022-09-01T10:35:39;36.87;31.60
9723;DHT22;4900;49.306;8.500;2022-09-01T10:38:43;37.27;30.88
9723;DHT22;4900;49.306;8.500;2022-09-01T10:41:55;37.66;30.76
9723;DHT22;4900;49.306;8.500;2022-09-01T10:45:36;37.99;30.68
9723;DHT22;4900;49.306;8.500;2022-09-01T10:48:43;38.29;30.06
9723;DHT22;4900;49.306;8.500;2022-09-01T10:51:46;37.55;30.39
9723;DHT22;4900;49.306;8.500;2022-09-01T10:54:56;37.32;30.22
9723;DHT22;4900;49.306;8.500;2022-09-01T11:07:48;38.63;29.01
9723;DHT22;4900;49.306;8.500;2022-09-01T11:11:03;38.87;28.77
9723;DHT22;4900;49.306;8.500;2022-09-01T11:14:24;38.32;28.08
9723;DHT22;4900;49.306;8.500;2022-09-01T11:17:57;38.17;28.30
9723;DHT22;4900;49.306;8.500;2022-09-01T11:21:29;38.69;27.96
9723;DHT22;4900;49.306;8.500;2022-09-01T11:34:16;39.52;27.14
9723;DHT22;4900;49.306;8.500;2022-09-01T11:37:22;39.45;26.88
9723;DHT22;4900;49.306;8.500;2022-09-01T11:40:29;39.45;26.90
9723;DHT22;4900;49.306;8.500;2022-09-01T11:43:34;39.23;27.34
9723;DHT22;4900;49.306;8.500;2022-09-01T11:46:38;38.89;27.40
9723;DHT22;4900;49.306;8.500;2022-09-01T11:49:55;38.28;28.16
9723;DHT22;4900;49.306;8.500;2022-09-01T11:52:59;38.34;28.03
9723;DHT22;4900;49.306;8.500;2022-09-01T11:56:14;37.91;28.31
9723;DHT22;4900;49.306;8.500;2022-09-01T11:59:34;36.97;28.87
9723;DHT22;4900;49.306;8.500;2022-09-01T12:02:50;36.14;29.91
9723;DHT22;4900;49.306;8.500;2022-09-01T12:05:56;35.35;30.68
9723;DHT22;4900;49.306;8.500;2022-09-01T12:09:04;34.70;31.51
9723;DHT22;4900;49.306;8.500;2022-09-01T12:12:36;35.22;31.39
9723;DHT22;4900;49.306;8.500;2022-09-01T12:15:40;36.17;30.77
9723;DHT22;4900;49.306;8.500;2022-09-01T12:18:49;37.11;29.74
9723;DHT22;4900;49.306;8.500;2022-09-01T12:22:22;37.79;29.47
9723;DHT22;4900;49.306;8.500;2022-09-01T12:25:31;38.55;28.06
9723;DHT22;4900;49.306;8.500;2022-09-01T12:28:35;39.07;27.59
9723;DHT22;4900;49.306;8.500;2022-09-01T12:31:45;38.89;27.43
9723;DHT22;4900;49.306;8.500;2022-09-01T12:35:01;38.17;27.89
9723;DHT22;4900;49.306;8.500;2022-09-01T12:38:22;37.31;28.51
9723;DHT22;4900;49.306;8.500;2022-09-01T12:41:33;37.51;28.88
9723;DHT22;4900;49.306;8.500;2022-09-01T12:50:49;36.24;30.22
9723;DHT22;4900;49.306;8.500;2022-09-01T12:53:58;36.20;30.17
9723;DHT22;4900;49.306;8.500;2022-09-01T12:57:02;36.69;30.49
9723;DHT22;4900;49.306;8.500;2022-09-01T13:00:18;37.18;29.66
9723;DHT22;4900;49.306;8.500;2022-09-01T13:03:22;37.55;28.44
9723;DHT22;4900;49.306;8.500;2022-09-01T13:06:25;38.14;27.97
9723;DHT22;4900;49.306;8.500;2022-09-01T13:09:28;38.59;27.32
9723;DHT22;4900;49.306;8.500;2022-09-01T13:12:31;38.99;26.96
9723;DHT22;4900;49.306;8.500;2022-09-01T13:15:37;39.45;26.13
9723;DHT22;4900;49.306;8.500;2022-09-01T13:18:41;40.04;26.10
9723;DHT22;4900;49.306;8.500;2022-09-01T13:21:45;40.43;25.37
9723;DHT22;4900;49.306;8.500;2022-09-01T13:24:49;40.92;24.96
9723;DHT22;4900;49.306;8.500;2022-09-01T13:27:53;41.27;24.30
9723;DHT22;4900;49.306;8.500;2022-09-01T13:30:59;41.07;24.48
9723;DHT22;4900;49.306;8.500;2022-09-01T13:34:03;41.19;24.45
9723;DHT22;4900;49.306;8.500;2022-09-01T13:37:06;41.23;24.09
9723;DHT22;4900;49.306;8.500;2022-09-01T13:40:09;41.62;23.80
9723;DHT22;4900;49.306;8.500;2022-09-01T13:43:21;41.64;23.92
9723;DHT22;4900;49.306;8.500;2022-09-01T13:46:24;41.51;23.48
9723;DHT22;4900;49.306;8.500;2022-09-01T13:49:27;41.58;23.14
9723;DHT22;4900;49.306;8.500;2022-09-01T13:52:30;41.78;23.17
9723;DHT22;4900;49.306;8.500;2022-09-01T13:55:37;41.51;22.73
9723;DHT22;4900;49.306;8.500;2022-09-01T13:58:41;41.47;22.84
9723;DHT22;4900;49.306;8.500;2022-09-01T14:01:44;41.57;23.09
9723;DHT22;4900;49.306;8.500;2022-09-01T14:04:47;41.95;23.13
9723;DHT22;4900;49.306;8.500;2022-09-01T14:07:51;42.23;23.22
9723;DHT22;4900;49.306;8.500;2022-09-01T14:10:54;42.65;22.44
9723;DHT22;4900;49.306;8.500;2022-09-01T14:13:57;42.79;22.45
9723;DHT22;4900;49.306;8.500;2022-09-01T14:17:00;43.03;22.17
9723;DHT22;4900;49.306;8.500;2022-09-01T14:20:07;43.20;22.21
9723;DHT22;4900;49.306;8.500;2022-09-01T14:23:12;43.36;21.79
9723;DHT22;4900;49.306;8.500;2022-09-01T14:26:16;43.58;21.80
9723;DHT22;4900;49.306;8.500;2022-09-01T14:29:19;43.88;21.59
9723;DHT22;4900;49.306;8.500;2022-09-01T14:32:22;43.76;21.76
9723;DHT22;4900;49.306;8.500;2022-09-01T14:35:29;43.81;21.70
9723;DHT22;4900;49.306;8.500;2022-09-01T14:38:35;43.78;21.34
9723;DHT22;4900;49.306;8.500;2022-09-01T14:41:38;43.94;21.35
9723;DHT22;4900;49.306;8.500;2022-09-01T14:44:41;43.99;20.94
9723;DHT22;4900;49.306;8.500;2022-09-01T14:47:47;43.84;21.41
9723;DHT22;4900;49.306;8.500;2022-09-01T14:50:50;43.58;21.83
9723;DHT22;4900;49.306;8.500;2022-09-01T14:53:54;43.67;22.00
9723;DHT22;4900;49.306;8.500;2022-09-01T14:56:58;43.46;21.89
9723;DHT22;4900;49.306;8.500;2022-09-01T15:00:01;43.24;22.10
9723;DHT22;4900;49.306;8.500;2022-09-01T15:03:04;42.94;22.00
9723;DHT22;4900;49.306;8.500;2022-09-01T15:06:13;42.83;21.93
9723;DHT22;4900;49.306;8.500;2022-09-01T15:09:17;42.85;21.46
9723;DHT22;4900;49.306;8.500;2022-09-01T15:12:20;42.78;21.39
9723;DHT22;4900;49.306;8.500;2022-09-01T15:15:25;42.76;21.81
9723;DHT22;4900;49.306;8.500;2022-09-01T15:18:29;42.78;22.20
9723;DHT22;4900;49.306;8.500;2022-09-01T15:21:32;42.92;21.92
9723;DHT22;4900;49.306;8.500;2022-09-01T15:24:35;42.94;22.31
9723;DHT22;4900;49.306;8.500;2022-09-01T15:27:38;42.98;21.73
9723;DHT22;4900;49.306;8.500;2022-09-01T15:30:41;42.95;21.74
9723;DHT22;4900;49.306;8.500;2022-09-01T15:33:46;43.09;21.94
9723;DHT22;4900;49.306;8.500;2022-09-01T15:36:49;43.13;21.41
9723;DHT22;4900;49.306;8.500;2022-09-01T15:39:52;43.17;21.22
9723;DHT22;4900;49.306;8.500;2022-09-01T15:42:55;43.23;21.34
9723;DHT22;4900;49.306;8.500;2022-09-01T15:46:01;43.12;21.13
9723;DHT22;4900;49.306;8.500;2022-09-01T15:49:08;42.83;21.23
9723;DHT22;4900;49.306;8.500;2022-09-01T15:52:11;42.58;21.81
9723;DHT22;4900;49.306;8.500;2022-09-01T15:55:21;41.96;21.69
9723;DHT22;4900;49.306;8.500;2022-09-01T15:58:24;41.06;22.13
9723;DHT22;4900;49.306;8.500;2022-09-01T16:01:29;40.14;23.06
9723;DHT22;4900;49.306;8.500;2022-09-01T16:04:32;39.21;24.06
9723;DHT22;4900;49.306;8.500;2022-09-01T16:07:35;38.18;25.15
9723;DHT22;4900;49.306;8.500;2022-09-01T16:10:39;36.82;26.68
9723;DHT22;4900;49.306;8.500;2022-09-01T16:13:44;35.98;27.50
9723;DHT22;4900;49.306;8.500;2022-09-01T16:20:26;34.43;29.17
9723;DHT22;4900;49.306;8.500;2022-09-01T16:23:40;33.90;29.99
9723;DHT22;4900;49.306;8.500;2022-09-01T16:26:46;33.49;30.77
9723;DHT22;4900;49.306;8.500;2022-09-01T16:29:53;32.89;31.66
9723;DHT22;4900;49.306;8.500;2022-09-01T16:33:01;32.39;32.26
9723;DHT22;4900;49.306;8.500;2022-09-01T16:39:50;31.45;33.66
9723;DHT22;4900;49.306;8.500;2022-09-01T16:43:04;31.17;34.18
9723;DHT22;4900;49.306;8.500;2022-09-01T16:46:30;30.89;34.50
9723;DHT22;4900;49.306;8.500;2022-09-01T16:49:51;30.48;35.19
9723;DHT22;4900;49.306;8.500;2022-09-01T17:00:00;29.62;36.59
9723;DHT22;4900;49.306;8.500;2022-09-01T17:03:15;29.36;36.86
9723;DHT22;4900;49.306;8.500;2022-09-01T17:06:28;29.22;37.13
9723;DHT22;4900;49.306;8.500;2022-09-01T17:12:47;28.92;38.27
9723;DHT22;4900;49.306;8.500;2022-09-01T17:16:02;28.49;39.10
9723;DHT22;4900;49.306;8.500;2022-09-01T17:19:10;28.24;39.36
9723;DHT22;4900;49.306;8.500;2022-09-01T17:22:18;28.13;39.43
9723;DHT22;4900;49.306;8.500;2022-09-01T17:25:31;27.96;39.81
9723;DHT22;4900;49.306;8.500;2022-09-01T17:28:37;27.74;40.05
9723;DHT22;4900;49.306;8.500;2022-09-01T17:42:02;26.96;41.36
9723;DHT22;4900;49.306;8.500;2022-09-01T17:45:29;26.68;42.03
9723;DHT22;4900;49.306;8.500;2022-09-01T17:48:54;26.58;42.11
9723;DHT22;4900;49.306;8.500;2022-09-01T18:05:21;25.93;43.39
9723;DHT22;4900;49.306;8.500;2022-09-01T18:08:51;25.74;43.76
9723;DHT22;4900;49.306;8.500;2022-09-01T18:12:01;25.58;43.95
9723;DHT22;4900;49.306;8.500;2022-09-01T18:15:08;25.42;44.21
9723;DHT22;4900;49.306;8.500;2022-09-01T18:18:38;25.33;44.48
9723;DHT22;4900;49.306;8.500;2022-09-01T18:21:48;25.16;44.71
9723;DHT22;4900;49.306;8.500;2022-09-01T18:25:09;25.06;44.91
9723;DHT22;4900;49.306;8.500;2022-09-01T18:28:15;24.94;45.04
9723;DHT22;4900;49.306;8.500;2022-09-01T18:35:02;24.64;45.65
9723;DHT22;4900;49.306;8.500;2022-09-01T18:45:13;24.27;46.66
9723;DHT22;4900;49.306;8.500;2022-09-01T18:49:01;24.13;47.03
9723;DHT22;4900;49.306;8.500;2022-09-01T18:55:54;23.86;47.57
9723;DHT22;4900;49.306;8.500;2022-09-01T18:59:17;23.75;47.76
9723;DHT22;4900;49.306;8.500;2022-09-01T19:09:28;23.34;48.08
9723;DHT22;4900;49.306;8.500;2022-09-01T19:13:05;23.24;48.45
9723;DHT22;4900;49.306;8.500;2022-09-01T19:16:23;23.16;48.51
9723;DHT22;4900;49.306;8.500;2022-09-01T19:19:43;23.06;48.61
9723;DHT22;4900;49.306;8.500;2022-09-01T19:26:21;22.83;49.01
9723;DHT22;4900;49.306;8.500;2022-09-01T19:29:37;22.78;49.11
9723;DHT22;4900;49.306;8.500;2022-09-01T19:32:43;22.71;49.29
9723;DHT22;4900;49.306;8.500;2022-09-01T19:35:48;22.65;49.36
9723;DHT22;4900;49.306;8.500;2022-09-01T19:38:52;22.60;49.43
9723;DHT22;4900;49.306;8.500;2022-09-01T19:42:06;22.51;49.60
9723;DHT22;4900;49.306;8.500;2022-09-01T19:45:37;22.44;49.77
9723;DHT22;4900;49.306;8.500;2022-09-01T19:48:54;22.34;50.03
9723;DHT22;4900;49.306;8.500;2022-09-01T19:55:27;22.20;50.44
9723;DHT22;4900;49.306;8.500;2022-09-01T20:02:30;22.13;50.81
9723;DHT22;4900;49.306;8.500;2022-09-01T20:05:56;22.05;50.88
9723;DHT22;4900;49.306;8.500;2022-09-01T20:09:14;22.00;51.18
9723;DHT22;4900;49.306;8.500;2022-09-01T20:12:35;21.91;51.24
9723;DHT22;4900;49.306;8.500;2022-09-01T20:15:52;21.81;51.67
9723;DHT22;4900;49.306;8.500;2022-09-01T20:19:02;21.74;51.93
9723;DHT22;4900;49.306;8.500;2022-09-01T20:26:00;21.55;52.60
9723;DHT22;4900;49.306;8.500;2022-09-01T20:33:00;21.38;52.90
9723;DHT22;4900;49.306;8.500;2022-09-01T20:36:15;21.31;53.05
9723;DHT22;4900;49.306;8.500;2022-09-01T20:43:02;21.16;53.43
9723;DHT22;4900;49.306;8.500;2022-09-01T20:46:08;21.09;53.58
9723;DHT22;4900;49.306;8.500;2022-09-01T20:49:13;21.03;53.81
9723;DHT22;4900;49.306;8.500;2022-09-01T20:52:25;20.99;53.83
9723;DHT22;4900;49.306;8.500;2022-09-01T20:55:39;20.95;54.09
9723;DHT22;4900;49.306;8.500;2022-09-01T21:02:24;20.79;54.68
9723;DHT22;4900;49.306;8.500;2022-09-01T21:25:10;20.36;55.95
9723;DHT22;4900;49.306;8.500;2022-09-01T21:28:15;20.26;56.23
9723;DHT22;4900;49.306;8.500;2022-09-01T21:31:22;20.17;56.44
9723;DHT22;4900;49.306;8.500;2022-09-01T21:34:26;20.10;56.71
9723;DHT22;4900;49.306;8.500;2022-09-01T21:37:29;20.02;56.94
9723;DHT22;4900;49.306;8.500;2022-09-01T21:40:33;19.96;57.18
9723;DHT22;4900;49.306;8.500;2022-09-01T21:43:42;19.90;57.27
9723;DHT22;4900;49.306;8.500;2022-09-01T21:46:47;19.87;57.43
9723;DHT22;4900;49.306;8.500;2022-09-01T21:49:50;19.82;57.65
9723;DHT22;4900;49.306;8.500;2022-09-01T21:52:53;19.79;57.64
9723;DHT22;4900;49.306;8.500;2022-09-01T21:55:57;19.76;57.80
9723;DHT22;4900;49.306;8.500;2022-09-01T21:59:00;19.74;57.73
9723;DHT22;4900;49.306;8.500;2022-09-01T22:02:03;19.72;57.69
9723;DHT22;4900;49.306;8.500;2022-09-01T22:05:09;19.76;57.62
9723;DHT22;4900;49.306;8.500;2022-09-01T22:08:14;19.74;57.73
9723;DHT22;4900;49.306;8.500;2022-09-01T22:11:19;19.74;57.94
9723;DHT22;4900;49.306;8.500;2022-09-01T22:14:23;19.71;58.05
9723;DHT22;4900;49.306;8.500;2022-09-01T22:17:27;19.62;58.37
9723;DHT22;4900;49.306;8.500;2022-09-01T22:20:33;19.59;58.52
9723;DHT22;4900;49.306;8.500;2022-09-01T22:23:37;19.59;58.59
9723;DHT22;4900;49.306;8.500;2022-09-01T22:26:40;19.53;58.69
9723;DHT22;4900;49.306;8.500;2022-09-01T22:29:43;19.51;58.83
9723;DHT22;4900;49.306;8.500;2022-09-01T22:32:53;19.47;59.00
9723;DHT22;4900;49.306;8.500;2022-09-01T22:35:57;19.40;59.14
9723;DHT22;4900;49.306;8.500;2022-09-01T22:39:01;19.37;59.17
9723;DHT22;4900;49.306;8.500;2022-09-01T22:42:04;19.37;59.31
9723;DHT22;4900;49.306;8.500;2022-09-01T22:45:08;19.31;59.46
9723;DHT22;4900;49.306;8.500;2022-09-01T22:48:12;19.26;59.64
9723;DHT22;4900;49.306;8.500;2022-09-01T22:51:16;19.24;59.65